Time;durP1;ratioP1;P1;durP2;ratioP2;P2;SDS_P1;SDS_P2;PMS_P1;PMS_P2;Temp;Humidity;BMP_temperature;BMP_pressure;BME280_temperature;BME280_humidity;BME280_pressure;Samples;Min_cycle;Max_cycle;Signal;HPM_P1;HPM_P2
2023/06/01 00:01:22;;;;;;;16.58;9.00;;;;;;;13.73;88.17;102279.44;4886969;29;20051;-93
2023/06/01 00:03:48;;;;;;;17.60;8.57;;;;;;;13.67;88.19;102282.13;4876851;29;20277;-94
2023/06/01 00:06:19;;;;;;;18.75;9.07;;;;;;;13.61;88.59;102278.75;4879507;29;20056;-94
2023/06/01 00:08:57;;;;;;;16.33;8.38;;;;;;;13.59;88.74;102277.91;4878632;29;20033;-94
2023/06/01 00:11:31;;;;;;;16.95;9.15;;;;;;;13.51;88.89;102283.22;4875590;29;20046;-94
2023/06/01 00:13:57;;;;;;;17.25;9.20;;;;;;;13.47;89.81;102281.53;4877103;29;20037;-93
2023/06/01 00:16:25;;;;;;;17.23;8.75;;;;;;;13.46;88.78;102285.03;4893646;29;20120;-94
2023/06/01 00:18:56;;;;;;;20.10;8.98;;;;;;;13.43;89.84;102285.06;4873336;29;20144;-94
2023/06/01 00:21:31;;;;;;;17.05;8.80;;;;;;;13.36;89.41;102278.22;4878244;29;20073;-93
2023/06/01 00:24:04;;;;;;;18.48;8.52;;;;;;;13.24;88.65;102275.72;4872732;29;20048;-92
2023/06/01 00:26:36;;;;;;;19.23;9.45;;;;;;;13.25;90.52;102283.53;4878043;29;20066;-93
2023/06/01 00:29:10;;;;;;;20.10;8.45;;;;;;;13.17;90.53;102285.34;4889029;29;20037;-94
2023/06/01 00:31:39;;;;;;;22.95;9.55;;;;;;;13.09;90.78;102271.56;4890004;29;20037;-94
2023/06/01 00:34:07;;;;;;;17.75;9.10;;;;;;;13.03;90.32;102275.06;4873181;29;20392;-94
2023/06/01 00:36:33;;;;;;;19.48;9.35;;;;;;;13.01;90.85;102273.38;4872693;29;20036;-92
2023/06/01 00:39:03;;;;;;;20.35;9.32;;;;;;;13.00;91.09;102287.25;4872842;29;20057;-94
2023/06/01 00:41:31;;;;;;;18.48;9.32;;;;;;;12.92;90.95;102268.25;4887499;29;20069;-94
2023/06/01 00:43:59;;;;;;;15.57;9.05;;;;;;;12.89;91.37;102276.97;4869295;29;20488;-93
2023/06/01 00:46:26;;;;;;;17.80;9.55;;;;;;;12.89;91.43;102276.97;4872427;29;21466;-94
2023/06/01 00:48:52;;;;;;;17.52;9.43;;;;;;;12.87;91.94;102280.47;4872837;29;20135;-93
2023/06/01 00:51:21;;;;;;;21.30;9.63;;;;;;;12.83;91.96;102279.63;4869455;29;20044;-93
2023/06/01 00:53:49;;;;;;;21.42;10.20;;;;;;;12.77;91.81;102279.69;4871185;29;20040;-93
2023/06/01 00:56:16;;;;;;;19.98;10.07;;;;;;;12.73;92.25;102282.34;4872956;29;20056;-93
2023/06/01 00:58:43;;;;;;;17.92;9.75;;;;;;;12.67;91.85;102275.47;4881204;29;20063;-93
2023/06/01 01:01:24;;;;;;;19.55;9.38;;;;;;;12.66;92.57;102274.59;4876126;29;20137;-93
2023/06/01 01:03:57;;;;;;;20.52;9.80;;;;;;;12.68;92.62;102285.00;4890049;29;20037;-93
2023/06/01 01:06:45;;;;;;;20.52;9.82;;;;;;;12.65;92.53;102283.28;4872573;29;20557;-93
2023/06/01 01:09:36;;;;;;;19.63;9.98;;;;;;;12.60;92.63;102300.66;4869967;29;20037;-94
2023/06/01 01:12:26;;;;;;;19.55;9.75;;;;;;;12.49;92.46;102284.28;4871176;29;20132;-94
2023/06/01 01:15:04;;;;;;;21.55;9.82;;;;;;;12.42;92.87;102290.41;4873337;29;20068;-92
2023/06/01 01:17:56;;;;;;;19.40;9.73;;;;;;;12.40;92.26;102292.16;4875145;29;20050;-94
2023/06/01 01:20:26;;;;;;;21.83;10.27;;;;;;;12.30;93.37;102295.69;4877055;29;20119;-94
2023/06/01 01:23:18;;;;;;;19.10;9.90;;;;;;;12.28;92.74;102303.50;4877003;29;20045;-94
2023/06/01 01:26:17;;;;;;;23.30;10.60;;;;;;;12.22;92.85;102295.75;4856403;29;20092;-93
2023/06/01 01:28:49;;;;;;;18.63;10.32;;;;;;;12.10;94.46;102290.66;4877490;29;20044;-95
2023/06/01 01:31:22;;;;;;;23.45;11.48;;;;;;;11.99;94.24;102292.47;4874265;29;20043;-93
2023/06/01 01:33:52;;;;;;;20.20;10.60;;;;;;;11.98;94.60;102306.31;4875242;29;20037;-94
2023/06/01 01:36:21;;;;;;;23.88;11.13;;;;;;;11.93;95.02;102308.09;4876166;29;20044;-93
2023/06/01 01:38:47;;;;;;;22.65;11.07;;;;;;;11.92;95.04;102310.69;4874463;29;20557;-93
2023/06/01 01:41:13;;;;;;;26.52;11.52;;;;;;;11.86;94.65;102304.66;4892960;29;20926;-93
2023/06/01 01:43:39;;;;;;;23.85;11.60;;;;;;;11.78;94.96;102297.78;4875687;29;20041;-94
2023/06/01 01:46:21;;;;;;;20.77;10.70;;;;;;;11.80;94.61;102309.03;4878038;29;20529;-94
2023/06/01 01:49:17;;;;;;;24.70;11.45;;;;;;;11.78;94.45;102310.78;4876941;29;20101;-93
2023/06/01 01:52:25;;;;;;;26.35;12.02;;;;;;;11.72;94.53;102300.38;4894783;29;20132;-94
2023/06/01 01:54:52;;;;;;;25.73;11.30;;;;;;;11.66;94.89;102314.25;4825615;29;20065;-94
2023/06/01 01:57:18;;;;;;;24.52;12.27;;;;;;;11.60;95.52;102311.66;4826068;29;20853;-94
2023/06/01 01:59:46;;;;;;;22.80;11.82;;;;;;;11.51;95.17;102301.34;4839993;29;20523;-93
2023/06/01 02:02:12;;;;;;;26.15;12.00;;;;;;;11.48;95.75;102299.59;4854625;29;20041;-93
2023/06/01 02:04:50;;;;;;;26.40;12.73;;;;;;;11.49;95.25;102309.13;4858137;29;20041;-93
2023/06/01 02:07:24;;;;;;;27.20;12.57;;;;;;;11.39;95.82;102302.25;4873500;29;20116;-94
2023/06/01 02:09:53;;;;;;;22.05;11.82;;;;;;;11.48;96.38;102316.91;4851536;29;20107;-90
2023/06/01 02:12:21;;;;;;;23.58;11.90;;;;;;;11.39;96.59;102298.81;4847571;29;20105;-91
2023/06/01 02:14:46;;;;;;;26.55;12.40;;;;;;;11.37;96.14;102309.19;4864209;29;20155;-91
2023/06/01 02:17:15;;;;;;;26.98;12.40;;;;;;;11.32;95.98;102305.75;4848895;29;20422;-90
2023/06/01 02:19:44;;;;;;;24.52;12.13;;;;;;;11.26;96.19;102295.34;4863916;29;20065;-91
2023/06/01 02:22:12;;;;;;;21.98;11.55;;;;;;;11.24;97.36;102296.25;4848535;29;20475;-90
2023/06/01 02:24:39;;;;;;;22.08;11.32;;;;;;;11.25;97.75;102297.97;4863655;29;20640;-90
2023/06/01 02:27:07;;;;;;;21.40;11.40;;;;;;;11.28;97.31;102304.00;4861426;29;20570;-90
2023/06/01 02:29:32;;;;;;;21.40;10.68;;;;;;;11.30;96.70;102307.47;4845888;29;20129;-90
2023/06/01 02:31:58;;;;;;;21.67;10.55;;;;;;;11.27;96.31;102297.09;4844481;29;20136;-90
2023/06/01 02:34:23;;;;;;;21.15;10.55;;;;;;;11.24;96.74;102283.28;4844340;29;20052;-91
2023/06/01 02:36:55;;;;;;;20.20;10.32;;;;;;;11.18;96.35;102284.16;4865873;29;20073;-91
2023/06/01 02:39:21;;;;;;;20.05;10.10;;;;;;;11.26;97.02;102290.16;4866442;29;20061;-93
2023/06/01 02:41:49;;;;;;;20.30;10.15;;;;;;;11.31;97.10;102300.56;4868978;29;20108;-94
2023/06/01 02:44:18;;;;;;;17.35;8.88;;;;;;;11.26;97.54;102282.38;4852935;29;20045;-94
2023/06/01 02:46:46;;;;;;;18.65;9.07;;;;;;;11.28;95.94;102290.16;4872137;29;20112;-93
2023/06/01 02:49:21;;;;;;;18.60;9.27;;;;;;;11.29;96.79;102292.75;4853052;29;20056;-93
2023/06/01 02:51:47;;;;;;;22.05;9.65;;;;;;;11.28;96.27;102279.78;4852527;29;20037;-94
2023/06/01 02:54:15;;;;;;;18.17;8.77;;;;;;;11.26;96.56;102290.16;4848848;29;20280;-93
2023/06/01 02:56:41;;;;;;;15.68;8.10;;;;;;;11.32;96.93;102297.09;4853413;29;20390;-93
2023/06/01 02:59:07;;;;;;;18.58;9.00;;;;;;;11.28;96.64;102296.22;4870374;29;20041;-93
2023/06/01 03:01:38;;;;;;;16.60;8.55;;;;;;;11.32;96.69;102302.28;4869385;29;20459;-94
2023/06/01 03:04:04;;;;;;;18.65;8.55;;;;;;;11.26;96.37;102291.94;4871466;29;20546;-93
2023/06/01 03:06:37;;;;;;;17.60;8.18;;;;;;;11.29;97.39;102295.34;4870584;29;20040;-94
2023/06/01 03:09:05;;;;;;;17.33;8.27;;;;;;;11.29;95.99;102303.16;4870508;29;20056;-94
2023/06/01 03:11:31;;;;;;;16.40;8.10;;;;;;;11.30;97.34;102296.22;4885783;29;20746;-94
2023/06/01 03:13:57;;;;;;;17.73;8.13;;;;;;;11.31;95.44;102305.75;4886634;29;20041;-93
2023/06/01 03:16:23;;;;;;;17.92;7.88;;;;;;;11.29;97.34;102302.28;4884010;29;20045;-94
2023/06/01 03:18:49;;;;;;;19.00;8.48;;;;;;;11.21;97.21;102299.72;4867180;29;20527;-93
2023/06/01 03:21:16;;;;;;;14.10;7.85;;;;;;;11.20;96.72;102291.91;4868550;29;20049;-94
2023/06/01 03:23:43;;;;;;;16.48;8.55;;;;;;;11.20;97.07;102303.16;4884955;29;20234;-94
2023/06/01 03:26:12;;;;;;;16.73;8.18;;;;;;;11.20;96.60;102294.50;4869323;29;20048;-94
2023/06/01 03:28:41;;;;;;;18.63;8.55;;;;;;;11.21;96.96;102293.66;4868732;29;20063;-93
2023/06/01 03:31:07;;;;;;;17.23;8.40;;;;;;;11.20;96.17;102294.50;4886698;29;20153;-95
2023/06/01 03:33:32;;;;;;;16.92;8.23;;;;;;;11.27;96.56;102304.00;4866901;29;20505;-93
2023/06/01 03:35:58;;;;;;;17.15;8.32;;;;;;;11.20;95.80;102290.19;4869233;29;20062;-94
2023/06/01 03:38:24;;;;;;;16.00;7.60;;;;;;;11.21;96.69;102293.66;4885118;29;20037;-94
2023/06/01 03:40:52;;;;;;;15.60;7.70;;;;;;;11.18;95.96;102289.34;4870833;29;20059;-94
2023/06/01 03:43:21;;;;;;;16.77;8.80;;;;;;;11.23;96.06;102299.72;4869105;29;20290;-94
2023/06/01 03:45:46;;;;;;;18.45;8.25;;;;;;;11.18;96.39;102291.94;4868822;29;20077;-93
2023/06/01 03:48:15;;;;;;;16.95;8.10;;;;;;;11.22;96.06;102290.19;4866134;29;20183;-93
2023/06/01 03:50:51;;;;;;;18.38;8.15;;;;;;;11.24;96.14;102293.66;4868230;29;20124;-94
2023/06/01 03:53:16;;;;;;;13.43;7.93;;;;;;;11.29;95.40;102297.09;4883845;29;20044;-94
2023/06/01 03:55:45;;;;;;;15.48;8.93;;;;;;;11.23;95.01;102304.91;4872534;29;20087;-93
2023/06/01 03:58:11;;;;;;;17.70;8.70;;;;;;;11.21;95.28;102301.44;4878245;29;20036;-94
2023/06/01 04:00:36;;;;;;;15.48;8.10;;;;;;;11.17;94.36;102305.78;4870666;29;20036;-94
2023/06/01 04:03:06;;;;;;;17.98;8.80;;;;;;;11.15;94.66;102304.91;4869293;29;20607;-94
2023/06/01 04:05:32;;;;;;;17.95;9.25;;;;;;;11.13;93.83;102310.97;4885637;29;20044;-94
2023/06/01 04:07:57;;;;;;;17.80;9.27;;;;;;;11.11;94.51;102313.59;4882730;29;20033;-94
2023/06/01 04:10:23;;;;;;;18.45;9.77;;;;;;;11.08;94.68;102311.00;4885736;29;20033;-94
2023/06/01 04:12:50;;;;;;;17.60;9.52;;;;;;;11.10;94.78;102314.44;4884564;29;20041;-94
2023/06/01 04:15:19;;;;;;;19.20;9.43;;;;;;;11.07;94.09;102296.28;4884680;29;20041;-95
2023/06/01 04:17:44;;;;;;;20.15;9.75;;;;;;;11.11;94.90;102300.63;4866826;29;20068;-94
2023/06/01 04:20:14;;;;;;;16.38;9.23;;;;;;;11.21;94.97;102315.28;4866544;29;20064;-93
2023/06/01 04:22:43;;;;;;;18.30;9.50;;;;;;;11.26;95.13;102308.34;4884582;29;20063;-93
2023/06/01 04:25:11;;;;;;;17.45;9.65;;;;;;;11.25;94.65;102295.38;4884013;29;20048;-94
2023/06/01 04:27:37;;;;;;;20.30;10.05;;;;;;;11.29;94.04;102310.94;4867862;29;20135;-94
2023/06/01 04:30:10;;;;;;;18.80;9.27;;;;;;;11.35;94.38;102310.03;4883139;29;20384;-93
2023/06/01 04:32:37;;;;;;;18.13;9.70;;;;;;;11.31;94.96;102308.34;4866562;29;20040;-94
2023/06/01 04:35:17;;;;;;;16.75;8.82;;;;;;;11.30;92.05;102304.00;4870220;29;21665;-94
2023/06/01 04:37:43;;;;;;;18.08;8.85;;;;;;;11.33;93.67;102314.38;4869171;29;20108;-93
2023/06/01 04:40:10;;;;;;;17.95;8.93;;;;;;;11.40;94.17;102316.94;4886222;29;20506;-94
2023/06/01 04:42:48;;;;;;;17.77;9.27;;;;;;;11.43;93.96;102327.34;4879776;29;20045;-93
2023/06/01 04:45:16;;;;;;;17.27;8.60;;;;;;;11.38;92.99;102316.09;4879353;29;20041;-93
2023/06/01 04:47:44;;;;;;;18.60;9.60;;;;;;;11.36;91.67;102323.03;4864682;29;20056;-93
2023/06/01 04:50:11;;;;;;;19.77;9.90;;;;;;;11.37;91.84;102321.28;4860623;29;20047;-93
2023/06/01 04:52:38;;;;;;;20.88;9.73;;;;;;;11.37;92.96;102322.16;4861005;29;20055;-93
2023/06/01 04:55:04;;;;;;;20.75;9.45;;;;;;;11.39;93.30;102324.75;4865080;29;20045;-93
2023/06/01 04:57:32;;;;;;;22.40;8.90;;;;;;;11.35;91.02;102323.88;4876942;29;20052;-92
2023/06/01 05:00:00;;;;;;;18.27;9.15;;;;;;;11.36;92.33;102320.44;4862049;29;20041;-93
2023/06/01 05:02:26;;;;;;;16.60;9.18;;;;;;;11.45;92.40;102324.75;4863152;29;20144;-93
2023/06/01 05:04:52;;;;;;;18.73;8.70;;;;;;;11.48;93.32;102320.38;4858527;29;20120;-93
2023/06/01 05:07:17;;;;;;;18.40;9.15;;;;;;;11.53;91.74;102322.13;4860187;29;20132;-93
2023/06/01 05:09:43;;;;;;;19.48;8.57;;;;;;;11.52;91.99;102310.88;4857523;29;20032;-92
2023/06/01 05:12:08;;;;;;;15.75;8.93;;;;;;;11.68;93.26;102311.63;4885016;29;20075;-93
2023/06/01 05:14:34;;;;;;;17.25;8.63;;;;;;;11.71;92.10;102306.44;4859162;29;20041;-94
2023/06/01 05:17:00;;;;;;;18.27;9.00;;;;;;;11.82;92.87;102309.88;4865636;29;20051;-93
2023/06/01 05:19:37;;;;;;;16.38;8.57;;;;;;;11.79;91.64;102299.50;4862810;29;20101;-93
2023/06/01 05:22:03;;;;;;;17.15;9.10;;;;;;;11.80;91.00;102301.25;4877351;29;20048;-93
2023/06/01 05:24:43;;;;;;;20.63;8.95;;;;;;;11.84;93.22;102311.59;4861147;29;20052;-95
2023/06/01 05:28:07;;;;;;;17.10;8.27;;;;;;;11.91;91.77;102304.63;4874705;29;20052;-94
2023/06/01 05:30:33;;;;;;;17.60;8.50;;;;;;;11.92;92.86;102295.97;5045350;23;20406;-93
2023/06/01 05:32:59;;;;;;;22.33;8.77;;;;;;;11.94;93.17;102296.81;4860057;29;20041;-94
2023/06/01 05:35:25;;;;;;;17.35;8.23;;;;;;;11.97;91.88;102295.94;4880916;29;20043;-94
2023/06/01 05:37:53;;;;;;;17.98;8.70;;;;;;;12.00;89.74;102301.13;4866427;29;20040;-93
2023/06/01 05:40:19;;;;;;;17.55;8.65;;;;;;;12.04;91.10;102305.41;4873266;29;20494;-94
2023/06/01 05:42:47;;;;;;;17.30;8.50;;;;;;;12.10;91.71;102297.56;4876204;29;20097;-93
2023/06/01 05:45:13;;;;;;;20.80;9.45;;;;;;;12.18;91.36;102301.84;4868608;29;20395;-93
2023/06/01 05:47:41;;;;;;;16.13;8.60;;;;;;;12.25;89.26;102311.34;4880406;29;20515;-94
2023/06/01 05:50:07;;;;;;;17.08;8.07;;;;;;;12.19;88.45;102316.59;4879870;29;20033;-92
2023/06/01 05:52:32;;;;;;;17.33;8.60;;;;;;;12.16;88.08;102316.59;4881231;29;20043;-94
2023/06/01 05:55:01;;;;;;;18.00;9.07;;;;;;;12.26;90.37;102317.41;4867291;29;20298;-93
2023/06/01 05:57:28;;;;;;;15.32;7.93;;;;;;;12.35;89.10;102319.91;4860221;29;20082;-93
2023/06/01 05:59:57;;;;;;;15.10;8.40;;;;;;;12.35;87.72;102308.69;4870376;29;20854;-93
2023/06/01 06:02:25;;;;;;;18.40;8.80;;;;;;;12.44;88.49;102319.88;4868958;29;20061;-93
2023/06/01 06:05:31;;;;;;;16.88;8.65;;;;;;;12.51;89.72;102324.16;4887500;29;20104;-94
2023/06/01 06:08:02;;;;;;;21.65;8.95;;;;;;;12.39;87.81;102316.44;4887378;29;20129;-93
2023/06/01 06:10:28;;;;;;;16.50;8.10;;;;;;;12.44;89.69;102325.06;4875620;29;20395;-94
2023/06/01 06:12:54;;;;;;;15.85;7.82;;;;;;;12.42;88.14;102313.81;4878721;29;20100;-94
2023/06/01 06:15:22;;;;;;;16.27;8.48;;;;;;;12.51;88.81;102326.75;4873013;29;20040;-93
2023/06/01 06:17:48;;;;;;;16.60;8.50;;;;;;;12.53;88.40;102325.00;4863826;29;20033;-93
2023/06/01 06:20:15;;;;;;;19.95;8.65;;;;;;;12.44;86.74;102313.78;4881554;29;20240;-93
2023/06/01 06:22:49;;;;;;;17.73;7.82;;;;;;;12.48;87.16;102321.59;4871729;29;20037;-93
2023/06/01 06:25:17;;;;;;;16.30;8.43;;;;;;;12.35;85.26;102314.72;4885903;29;20043;-93
2023/06/01 06:27:46;;;;;;;21.30;8.95;;;;;;;12.32;89.09;102308.69;4877084;29;20032;-93
2023/06/01 06:30:12;;;;;;;18.35;8.77;;;;;;;12.35;89.19;102327.72;4860468;29;20053;-94
2023/06/01 06:32:45;;;;;;;21.08;9.38;;;;;;;12.34;86.99;102309.56;4874576;29;20043;-93
2023/06/01 06:35:12;;;;;;;18.27;8.63;;;;;;;12.43;88.13;102315.53;4858749;29;20037;-93
2023/06/01 06:37:41;;;;;;;16.42;8.10;;;;;;;12.44;86.68;102301.66;4874771;29;20519;-92
2023/06/01 06:40:10;;;;;;;20.15;8.20;;;;;;;12.60;88.55;102310.22;4873482;29;20383;-93
2023/06/01 06:42:38;;;;;;;20.33;8.73;;;;;;;12.74;89.97;102304.88;4876918;29;20494;-93
2023/06/01 06:45:04;;;;;;;18.23;8.43;;;;;;;12.98;89.19;102315.91;4876558;29;20041;-92
2023/06/01 06:47:30;;;;;;;15.27;8.15;;;;;;;13.27;87.17;102309.56;4856438;29;20037;-93
2023/06/01 06:49:56;;;;;;;20.67;8.60;;;;;;;13.54;86.15;102314.44;4873591;29;20034;-92
2023/06/01 06:52:25;;;;;;;16.23;8.57;;;;;;;13.95;87.58;102313.91;4862800;29;20038;-92
2023/06/01 06:54:50;;;;;;;16.48;8.50;;;;;;;14.15;82.70;102314.47;4854948;29;20529;-93
2023/06/01 06:57:16;;;;;;;16.40;8.20;;;;;;;14.36;82.50;102315.88;4862113;29;20069;-95
2023/06/01 06:59:41;;;;;;;19.13;8.02;;;;;;;14.67;79.26;102321.50;4865474;29;20037;-93
2023/06/01 07:02:10;;;;;;;15.15;7.97;;;;;;;15.29;81.46;102322.09;4866786;29;20048;-94
2023/06/01 07:04:36;;;;;;;15.07;8.05;;;;;;;15.68;75.67;102323.09;4868225;29;20064;-94
2023/06/01 07:07:03;;;;;;;18.60;7.93;;;;;;;15.67;76.01;102331.81;4863131;29;20037;-94
2023/06/01 07:09:29;;;;;;;15.98;7.88;;;;;;;15.79;77.72;102318.47;4859617;29;20037;-95
2023/06/01 07:12:00;;;;;;;17.63;8.10;;;;;;;16.02;75.71;102320.59;4877380;29;20138;-95
2023/06/01 07:14:33;;;;;;;16.10;7.68;;;;;;;16.04;72.99;102303.09;4879573;29;20041;-94
2023/06/01 07:16:58;;;;;;;17.83;8.45;;;;;;;15.99;72.06;102315.44;4862659;29;20032;-94
2023/06/01 07:19:35;;;;;;;18.90;7.70;;;;;;;15.87;72.29;102326.16;4880645;29;20042;-95
2023/06/01 07:22:01;;;;;;;17.08;8.35;;;;;;;15.74;70.11;102315.13;4884087;29;20117;-95
2023/06/01 07:24:27;;;;;;;17.33;8.40;;;;;;;15.63;72.50;102304.00;4884825;29;20041;-94
2023/06/01 07:27:07;;;;;;;16.75;8.43;;;;;;;15.58;72.39;102305.88;4867620;29;20064;-95
2023/06/01 07:29:36;;;;;;;13.57;8.18;;;;;;;15.55;71.64;102312.03;4883861;29;20036;-96
2023/06/01 07:32:13;;;;;;;15.85;8.18;;;;;;;15.50;74.45;102311.22;4862877;29;20057;-94
2023/06/01 07:34:39;;;;;;;17.33;7.82;;;;;;;15.57;74.34;102311.97;4865703;29;20532;-93
2023/06/01 07:37:07;;;;;;;16.55;8.68;;;;;;;15.70;71.40;102316.91;4874489;29;20033;-92
2023/06/01 07:39:42;;;;;;;21.83;8.93;;;;;;;15.79;71.95;102313.25;4881213;29;20439;-94
2023/06/01 07:42:07;;;;;;;15.88;8.50;;;;;;;15.98;74.49;102305.84;4861225;29;20495;-93
2023/06/01 07:44:33;;;;;;;16.75;8.70;;;;;;;16.55;72.08;102307.09;4862617;29;20085;-94
2023/06/01 07:46:59;;;;;;;16.27;8.30;;;;;;;17.85;64.89;102314.88;4867513;29;20040;-93
2023/06/01 07:49:30;;;;;;;20.08;9.02;;;;;;;19.20;58.53;102309.53;4865850;29;20057;-94
2023/06/01 07:51:58;;;;;;;15.65;8.18;;;;;;;20.05;57.90;102306.31;4877256;29;20049;-93
2023/06/01 07:54:26;;;;;;;15.02;8.40;;;;;;;20.73;53.29;102310.53;4864797;29;20658;-94
2023/06/01 07:56:53;;;;;;;18.27;9.02;;;;;;;21.08;49.59;102312.50;4870421;29;20487;-93
2023/06/01 07:59:25;;;;;;;16.00;8.38;;;;;;;21.34;51.52;102307.88;4878448;29;20044;-95
2023/06/01 08:02:00;;;;;;;17.23;8.35;;;;;;;21.07;51.59;102305.53;4880071;29;20101;-93
2023/06/01 08:04:56;;;;;;;14.85;8.65;;;;;;;20.58;52.59;102311.19;4863269;29;20128;-94
2023/06/01 08:07:31;;;;;;;15.82;8.45;;;;;;;20.21;56.78;102304.75;4878594;29;20044;-94
2023/06/01 08:10:05;;;;;;;16.02;8.75;;;;;;;19.92;53.96;102310.34;4865051;29;20037;-94
2023/06/01 08:12:50;;;;;;;15.27;9.02;;;;;;;19.87;55.69;102304.38;4883770;29;20048;-95
2023/06/01 08:15:36;;;;;;;16.13;8.80;;;;;;;20.11;56.93;102306.06;4861946;29;20048;-95
2023/06/01 08:18:46;;;;;;;14.60;8.63;;;;;;;20.10;55.40;102306.97;4881942;29;20124;-94
2023/06/01 08:21:18;;;;;;;17.20;9.05;;;;;;;19.90;57.21;102299.00;4859779;29;20683;-93
2023/06/01 08:24:03;;;;;;;17.00;9.82;;;;;;;19.93;55.99;102289.19;4882537;29;20585;-94
2023/06/01 08:26:31;;;;;;;17.27;9.30;;;;;;;19.97;56.54;102292.59;4880495;29;20086;-95
2023/06/01 08:29:32;;;;;;;18.05;8.95;;;;;;;20.25;57.42;102301.09;4866915;29;20093;-93
2023/06/01 08:32:27;;;;;;;15.13;8.80;;;;;;;20.54;56.44;102296.44;4864764;29;20049;-96
2023/06/01 08:34:54;;;;;;;;;;;;;;;20.82;58.25;102300.44;4879934;29;20521;-95
2023/06/01 08:37:30;;;;;;;16.42;8.57;;;;;;;20.92;53.43;102295.63;4871240;29;19919;-93
2023/06/01 08:40:10;;;;;;;16.77;9.40;;;;;;;20.84;52.75;102292.47;4865438;29;20132;-91
2023/06/01 08:42:45;;;;;;;15.15;8.00;;;;;;;20.80;54.78;102293.53;4850247;29;20041;-92
2023/06/01 08:45:17;;;;;;;14.90;9.00;;;;;;;20.81;54.55;102288.19;4867966;29;20041;-91
2023/06/01 08:47:58;;;;;;;13.35;8.32;;;;;;;20.59;51.02;102278.66;4851026;29;20116;-92
2023/06/01 08:50:53;;;;;;;17.73;8.95;;;;;;;20.76;52.82;102278.75;4851230;29;20538;-92
2023/06/01 08:53:32;;;;;;;16.63;9.00;;;;;;;20.62;52.79;102278.50;4851701;29;20041;-92
2023/06/01 08:56:03;;;;;;;17.20;8.93;;;;;;;20.73;54.68;102284.19;4849898;29;20047;-91
2023/06/01 08:58:30;;;;;;;19.15;9.90;;;;;;;20.59;50.71;102279.50;4854434;29;20037;-91
2023/06/01 09:00:59;;;;;;;20.75;9.18;;;;;;;20.57;51.83;102273.44;4849303;29;20045;-92
2023/06/01 09:03:45;;;;;;;16.60;9.55;;;;;;;20.58;51.41;102263.75;4851470;29;20037;-93
2023/06/01 09:09:44;;;;;;;14.57;8.95;;;;;;;20.73;54.21;102273.66;4862172;29;20041;-94
2023/06/01 09:18:42;;;;;;;;;;;;;;;;;;;;;
2023/06/01 09:21:26;;;;;;;17.38;8.55;;;;;;;20.77;53.54;102269.94;4869045;29;20037;-95
2023/06/01 09:24:22;;;;;;;16.52;9.05;;;;;;;20.71;51.99;102255.25;4859295;29;20077;-93
2023/06/01 09:27:09;;;;;;;14.70;9.20;;;;;;;20.78;51.37;102259.34;4853859;29;20101;-95
2023/06/01 09:29:45;;;;;;;16.20;8.63;;;;;;;20.73;52.46;102248.16;4859962;29;20040;-93
2023/06/01 09:32:30;;;;;;;15.63;8.82;;;;;;;20.85;52.87;102246.75;4697649;29;4359897;-93
2023/06/01 09:35:11;;;;;;;;;;;;;;;;;;;;;
2023/06/01 09:38:09;;;;;;;15.27;9.18;;;;;;;20.91;52.13;102238.56;4859117;29;20029;-96
2023/06/01 09:40:54;;;;;;;15.40;8.63;;;;;;;20.72;51.46;102245.56;4848027;29;20045;-94
2023/06/01 09:43:42;;;;;;;;;;;;;;;20.90;50.54;102247.38;4845519;29;20048;-94
2023/06/01 09:50:06;;;;;;;;;;;;;;;;;;;;;
2023/06/01 09:53:16;;;;;;;18.60;8.32;;;;;;;20.74;52.88;102252.50;4859957;29;20040;-94
2023/06/01 09:56:13;;;;;;;16.75;9.43;;;;;;;20.83;50.89;102233.63;4858577;29;20257;-93
2023/06/01 09:58:49;;;;;;;18.70;9.23;;;;;;;20.72;51.47;102238.53;4838027;29;20038;-95
2023/06/01 10:01:31;;;;;;;18.50;9.93;;;;;;;20.66;52.08;102232.66;4843253;29;20049;-94
2023/06/01 10:04:15;;;;;;;15.48;9.15;;;;;;;20.88;52.41;102233.41;4840392;29;20041;-94
2023/06/01 10:06:51;;;;;;;16.95;9.65;;;;;;;20.99;51.14;102225.91;4839164;29;20053;-94
2023/06/01 10:09:38;;;;;;;17.73;8.48;;;;;;;21.18;51.11;102228.56;4839444;29;20452;-94
2023/06/01 10:12:39;;;;;;;17.38;9.45;;;;;;;21.24;50.32;102228.28;4849993;29;20065;-94
2023/06/01 10:15:42;;;;;;;16.73;9.15;;;;;;;21.29;51.58;102232.44;4852624;29;20424;-94
2023/06/01 10:18:32;;;;;;;17.85;10.43;;;;;;;20.96;51.01;102220.75;4856001;29;20056;-94
2023/06/01 10:24:43;;;;;;;16.40;10.10;;;;;;;21.03;50.21;102216.06;4854770;29;20542;-94
2023/06/01 10:27:49;;;;;;;17.70;10.00;;;;;;;21.07;50.58;102234.31;4838847;29;20427;-95
2023/06/01 10:34:22;;;;;;;;;;;;;;;;;;;;;
2023/06/01 10:37:15;;;;;;;16.95;9.93;;;;;;;20.79;52.60;102224.16;4876790;29;20522;-95
2023/06/01 10:40:24;;;;;;;;;;;;;;;;;;;;;
2023/06/01 10:43:02;;;;;;;20.92;10.23;;;;;;;20.69;52.11;102212.28;4865994;29;20044;-94
2023/06/01 10:46:16;;;;;;;17.73;9.93;;;;;;;20.81;53.26;102216.19;4852294;29;20049;-94
2023/06/01 10:52:32;;;;;;;21.42;9.93;;;;;;;20.60;52.82;102210.09;4787380;29;20113;-93
2023/06/01 10:55:15;;;;;;;17.92;9.90;;;;;;;20.64;53.40;102216.91;4869405;29;21019;-93
2023/06/01 10:57:51;;;;;;;18.35;9.90;;;;;;;20.58;51.35;102209.28;4870350;29;20044;-94
2023/06/01 11:00:23;;;;;;;16.42;9.68;;;;;;;20.73;52.54;102210.41;4857604;29;20456;-93
2023/06/01 11:02:55;;;;;;;18.45;9.35;;;;;;;20.85;51.72;102208.06;4863067;29;20066;-92
2023/06/01 11:05:46;;;;;;;18.17;9.90;;;;;;;20.81;51.39;102209.09;4864219;29;20033;-94
2023/06/01 11:08:31;;;;;;;18.42;9.40;;;;;;;20.76;50.88;102203.19;4874797;29;20051;-93
2023/06/01 11:10:59;;;;;;;17.42;9.35;;;;;;;20.81;50.29;102201.19;4857266;29;21114;-92
2023/06/01 11:13:35;;;;;;;17.60;9.73;;;;;;;20.76;50.24;102195.28;4873362;29;20050;-94
2023/06/01 11:16:09;;;;;;;14.55;9.23;;;;;;;20.72;50.02;102209.53;4873435;29;20411;-93
2023/06/01 11:19:03;;;;;;;17.85;9.52;;;;;;;20.65;50.08;102196.69;4873511;29;20290;-94
2023/06/01 11:21:46;;;;;;;15.18;8.20;;;;;;;20.68;52.05;102193.91;4868576;29;20547;-93
2023/06/01 11:24:17;;;;;;;16.90;9.00;;;;;;;20.59;51.02;102189.91;4879276;29;20056;-93
2023/06/01 11:26:47;;;;;;;16.50;8.93;;;;;;;20.41;52.26;102183.66;4876719;29;20094;-94
2023/06/01 11:29:32;;;;;;;15.50;8.90;;;;;;;20.45;52.06;102189.66;4857288;29;20048;-93
2023/06/01 11:32:25;;;;;;;16.85;9.93;;;;;;;20.47;51.93;102193.91;4856890;29;20499;-92
2023/06/01 11:34:55;;;;;;;14.70;8.88;;;;;;;20.59;51.70;102178.53;4865461;29;20041;-93
2023/06/01 11:37:21;;;;;;;16.98;9.02;;;;;;;20.68;51.71;102178.94;4856580;29;20041;-94
2023/06/01 11:39:55;;;;;;;16.77;9.98;;;;;;;20.69;50.27;102183.31;4872651;29;20048;-93
2023/06/01 11:42:35;;;;;;;15.57;9.45;;;;;;;20.73;50.68;102181.41;4856319;29;20032;-93
2023/06/01 11:45:19;;;;;;;15.43;9.00;;;;;;;20.68;49.88;102172.81;4870585;29;20033;-94
2023/06/01 11:47:51;;;;;;;;;;;;;;;20.83;51.29;102191.44;4854734;29;20041;-92
2023/06/01 11:50:31;;;;;;;17.27;8.75;;;;;;;20.67;50.63;102171.13;4855631;29;19934;-93
2023/06/01 11:53:00;;;;;;;16.42;9.02;;;;;;;20.67;51.74;102177.28;4854307;29;20402;-92
2023/06/01 11:55:26;;;;;;;17.10;9.30;;;;;;;20.54;51.44;102164.72;4854346;29;20483;-91
2023/06/01 11:58:00;;;;;;;17.13;9.40;;;;;;;20.57;50.52;102178.59;4863556;29;20041;-93
2023/06/01 12:00:26;;;;;;;16.85;9.30;;;;;;;20.58;51.30;102176.81;4870041;29;20044;-92
2023/06/01 12:03:10;;;;;;;16.48;9.27;;;;;;;20.64;51.76;102158.09;4869287;29;20081;-91
2023/06/01 12:05:59;;;;;;;18.37;9.50;;;;;;;20.86;53.41;102169.38;4871206;29;20046;-92
2023/06/01 12:08:28;;;;;;;15.95;9.35;;;;;;;20.76;52.03;102160.16;4853198;29;20068;-94
2023/06/01 12:10:57;;;;;;;16.20;9.32;;;;;;;20.71;49.39;102162.16;4863924;29;20037;-91
2023/06/01 12:13:24;;;;;;;13.65;8.55;;;;;;;20.76;50.46;102157.53;4869882;29;20042;-93
2023/06/01 12:16:32;;;;;;;17.48;9.20;;;;;;;20.72;50.83;102150.69;4871155;29;20518;-92
2023/06/01 12:19:20;;;;;;;17.55;8.52;;;;;;;20.73;50.49;102168.22;4857730;29;20040;-93